Terminal Aerodrome Forecast
Issued by NWS Charleston, WV

Current Version | Previous Version | Graphics & Text | Print | Product List | Glossary On
Versions: 1 2 3 4 5 6 7 8 9 10 11 12 13 14 15 16 17 18 19 20 21 22 23 24 25 26 27
000
FTUS41 KRLX 290237 AAA
TAFPKB
TAF AMD
KPKB 290237Z 2903/2924 00000KT 6SM BR SCT050
      TEMPO 2903/2904 4SM BR
     FM290400 00000KT 3SM BR SCT050
      TEMPO 2905/2907 2SM BR FEW001
     FM290700 00000KT 2SM BR SCT001
     FM290900 00000KT 1/4SM FG VV001
     FM291300 00000KT 2SM BR SCT001
     FM291400 00000KT 6SM BR SKC
     FM291500 00000KT P6SM FEW050=

USA.gov is the U.S. government's official web portal to all federal, state and local government web resources and services.